Time;durP1;ratioP1;P1;durP2;ratioP2;P2;SDS_P1;SDS_P2;PMS_P1;PMS_P2;Temp;Humidity;BMP_temperature;BMP_pressure;BME280_temperature;BME280_humidity;BME280_pressure;Samples;Min_cycle;Max_cycle;Signal;HPM_P1;HPM_P2
2021/10/25 00:01:12;;;;;;;2.53;1.50;;;;;;;;;;10299707;28;20045;-62
2021/10/25 00:06:10;;;;;;;6.38;2.38;;;;;;;;;;10304540;28;20044;-61
2021/10/25 00:11:07;;;;;;;5.60;3.73;;;;;;;;;;10305039;28;20032;-60
2021/10/25 00:16:05;;;;;;;3.47;1.97;;;;;;;;;;10287946;28;20495;-61
2021/10/25 00:21:03;;;;;;;5.18;2.13;;;;;;;;;;10308944;28;20399;-63
2021/10/25 00:26:00;;;;;;;3.72;2.30;;;;;;;;;;10302107;28;20495;-63
2021/10/25 00:30:58;;;;;;;3.83;2.30;;;;;;;;;;10311787;28;20041;-56
2021/10/25 00:35:57;;;;;;;1.60;1.50;;;;;;;;;;10297215;28;20044;-61
2021/10/25 00:40:54;;;;;;;2.50;2.17;;;;;;;;;;10327133;28;20034;-60
2021/10/25 00:45:51;;;;;;;5.63;2.47;;;;;;;;;;10306080;28;20037;-62
2021/10/25 00:50:49;;;;;;;4.43;3.67;;;;;;;;;;10301174;28;20137;-63
2021/10/25 00:55:46;;;;;;;4.37;2.70;;;;;;;;;;10273298;28;20049;-62
2021/10/25 01:00:44;;;;;;;10.23;2.57;;;;;;;;;;10303932;28;20281;-63
2021/10/25 01:05:41;;;;;;;6.17;2.77;;;;;;;;;;10273350;28;20029;-61
2021/10/25 01:10:41;;;;;;;3.72;2.63;;;;;;;;;;10308774;28;20029;-62
2021/10/25 01:15:39;;;;;;;5.90;1.90;;;;;;;;;;10307297;28;20036;-62
2021/10/25 01:20:36;;;;;;;4.57;2.90;;;;;;;;;;10287120;28;20029;-63
2021/10/25 01:25:34;;;;;;;5.93;2.20;;;;;;;;;;10287289;28;20044;-61
2021/10/25 01:30:33;;;;;;;3.53;2.45;;;;;;;;;;10292446;28;20042;-63
2021/10/25 01:35:30;;;;;;;5.77;3.23;;;;;;;;;;10282768;28;20410;-63
2021/10/25 01:40:28;;;;;;;6.72;2.45;;;;;;;;;;10276025;28;20174;-63
2021/10/25 01:45:29;;;;;;;5.93;2.83;;;;;;;;;;10280827;28;20029;-63
2021/10/25 01:50:26;;;;;;;;;;;;;;;;;;10292282;28;21542;-63
2021/10/25 01:55:24;;;;;;;3.73;2.33;;;;;;;;;;10274464;28;20027;-62
2021/10/25 02:00:23;;;;;;;11.00;3.80;;;;;;;;;;10308530;28;20116;-62
2021/10/25 02:05:21;;;;;;;3.08;2.15;;;;;;;;;;10278452;28;20109;-61
2021/10/25 02:10:20;;;;;;;4.90;2.80;;;;;;;;;;10277017;28;20419;-62
2021/10/25 02:15:17;;;;;;;5.00;2.67;;;;;;;;;;10278896;28;20068;-63
2021/10/25 02:20:16;;;;;;;7.55;4.32;;;;;;;;;;10285027;28;20045;-62
2021/10/25 02:25:14;;;;;;;7.90;2.87;;;;;;;;;;10280526;28;20108;-62
2021/10/25 02:30:11;;;;;;;11.27;3.53;;;;;;;;;;10288332;28;20095;-63
2021/10/25 02:35:09;;;;;;;4.03;2.93;;;;;;;;;;10279383;28;20049;-63
2021/10/25 02:40:14;;;;;;;5.57;3.17;;;;;;;;;;10277578;28;20511;-63
2021/10/25 02:45:11;;;;;;;5.45;2.58;;;;;;;;;;10298431;28;20052;-62
2021/10/25 02:50:10;;;;;;;6.47;4.22;;;;;;;;;;10269871;28;20792;-63
2021/10/25 02:55:07;;;;;;;3.92;3.40;;;;;;;;;;10294421;28;20041;-63
2021/10/25 03:00:06;;;;;;;7.87;2.87;;;;;;;;;;10268803;28;20053;-62
2021/10/25 03:05:07;;;;;;;5.10;3.47;;;;;;;;;;10281849;28;20463;-63
2021/10/25 03:10:05;;;;;;;5.15;3.80;;;;;;;;;;10296036;28;20154;-61
2021/10/25 03:15:06;;;;;;;3.05;2.80;;;;;;;;;;10310369;28;20049;-63
2021/10/25 03:20:05;;;;;;;6.53;3.67;;;;;;;;;;10317395;28;20053;-62
2021/10/25 03:25:02;;;;;;;;;;;;;;;;;;10291783;28;20069;-64
2021/10/25 03:29:59;;;;;;;5.20;2.58;;;;;;;;;;10302069;28;19939;-62
2021/10/25 03:34:57;;;;;;;8.17;3.57;;;;;;;;;;10310605;28;20042;-61
2021/10/25 03:39:55;;;;;;;10.93;3.23;;;;;;;;;;10280956;28;20498;-63
2021/10/25 03:45:11;;;;;;;5.55;3.42;;;;;;;;;;10279981;28;20406;-63
2021/10/25 03:50:16;;;;;;;6.22;3.85;;;;;;;;;;10282988;28;20191;-62
2021/10/25 03:55:39;;;;;;;7.97;3.47;;;;;;;;;;10293717;28;20099;-62
2021/10/25 04:32:12;;;;;;;5.65;3.63;;;;;;;;;;10302882;28;20042;-62
2021/10/25 04:37:11;;;;;;;9.35;4.50;;;;;;;;;;10273018;28;20037;-62
2021/10/25 04:42:16;;;;;;;10.68;5.05;;;;;;;;;;10274872;28;20032;-62
2021/10/25 04:47:14;;;;;;;10.38;4.78;;;;;;;;;;10281342;28;20037;-63
2021/10/25 04:52:12;;;;;;;7.60;4.90;;;;;;;;;;10274889;28;20496;-63
2021/10/25 04:57:09;;;;;;;8.23;4.27;;;;;;;;;;10273625;28;20100;-62
2021/10/25 05:02:08;;;;;;;9.38;4.85;;;;;;;;;;10297406;28;20065;-63
2021/10/25 05:07:06;;;;;;;8.38;5.13;;;;;;;;;;10321723;28;20033;-63
2021/10/25 05:12:04;;;;;;;4.83;3.50;;;;;;;;;;10273715;28;20040;-63
2021/10/25 05:17:02;;;;;;;11.80;6.40;;;;;;;;;;10311449;28;21385;-63
2021/10/25 05:22:00;;;;;;;6.17;4.43;;;;;;;;;;10275876;28;20057;-62
2021/10/25 05:26:58;;;;;;;10.35;6.03;;;;;;;;;;10278103;28;20530;-62
2021/10/25 05:31:55;;;;;;;8.77;4.97;;;;;;;;;;10285970;28;20469;-62
2021/10/25 05:36:53;;;;;;;8.48;4.65;;;;;;;;;;10309010;28;20129;-63
2021/10/25 05:41:51;;;;;;;10.83;6.10;;;;;;;;;;10275454;28;20125;-62
2021/10/25 05:46:48;;;;;;;17.97;5.83;;;;;;;;;;10277839;28;20060;-63
2021/10/25 05:51:46;;;;;;;11.93;5.72;;;;;;;;;;10280261;28;20106;-62
2021/10/25 05:56:46;;;;;;;8.83;5.50;;;;;;;;;;10287716;28;20034;-62
2021/10/25 06:01:55;;;;;;;10.15;5.00;;;;;;;;;;10278288;28;20049;-61
2021/10/25 06:06:55;;;;;;;9.57;5.55;;;;;;;;;;10285112;28;20075;-62
2021/10/25 06:11:54;;;;;;;6.50;2.85;;;;;;;;;;10268593;28;20033;-62
2021/10/25 06:16:57;;;;;;;11.03;6.83;;;;;;;;;;10297214;28;20041;-62
2021/10/25 06:21:54;;;;;;;12.73;6.45;;;;;;;;;;10266581;28;20042;-63
2021/10/25 06:26:58;;;;;;;9.80;5.72;;;;;;;;;;10272632;28;20045;-62
2021/10/25 06:31:55;;;;;;;13.00;5.53;;;;;;;;;;10268496;28;20451;-65
2021/10/25 06:36:55;;;;;;;11.43;5.05;;;;;;;;;;10258178;28;20119;-62
2021/10/25 06:41:54;;;;;;;7.85;3.55;;;;;;;;;;10277765;28;20521;-62
2021/10/25 06:46:56;;;;;;;7.55;5.63;;;;;;;;;;10269567;28;20058;-62
2021/10/25 06:51:54;;;;;;;9.27;5.50;;;;;;;;;;10269119;28;20049;-62
2021/10/25 06:56:52;;;;;;;11.25;5.80;;;;;;;;;;10278408;28;20109;-63
2021/10/25 07:01:49;;;;;;;5.03;3.43;;;;;;;;;;10285519;28;20120;-63
2021/10/25 07:06:48;;;;;;;;;;;;;;;;;;10251758;28;20597;-62
2021/10/25 07:11:46;;;;;;;10.55;6.03;;;;;;;;;;10269332;28;20027;-62
2021/10/25 07:16:51;;;;;;;10.87;5.17;;;;;;;;;;10264322;28;20542;-59
2021/10/25 08:14:10;;;;;;;8.75;5.90;;;;;;;;;;10291314;28;20689;-62
2021/10/25 08:19:29;;;;;;;9.45;5.03;;;;;;;;;;10271143;28;20048;-63
2021/10/25 08:24:29;;;;;;;12.00;6.57;;;;;;;;;;10291436;28;20042;-60
2021/10/25 08:29:41;;;;;;;12.25;6.63;;;;;;;;;;10292388;28;20395;-63
2021/10/25 08:35:32;;;;;;;10.73;5.68;;;;;;;;;;10281815;28;20167;-62
2021/10/25 08:40:16;;;;;;;12.88;7.13;;;;;;;;;;10273218;28;20033;-63
2021/10/25 08:45:18;;;;;;;11.07;6.38;;;;;;;;;;10277782;28;20037;-62
2021/10/25 08:50:17;;;;;;;14.45;5.80;;;;;;;;;;10270399;28;20072;-62
2021/10/25 08:55:18;;;;;;;11.80;6.38;;;;;;;;;;10286648;28;20497;-62
2021/10/25 09:00:23;;;;;;;10.98;6.15;;;;;;;;;;10255983;28;20043;-62
2021/10/25 09:05:52;;;;;;;10.50;6.03;;;;;;;;;;10302191;28;20021;-61
2021/10/25 09:10:50;;;;;;;10.77;6.70;;;;;;;;;;10255147;28;20144;-62
2021/10/25 09:15:49;;;;;;;12.13;6.15;;;;;;;;;;10267912;28;20034;-64
2021/10/25 09:21:06;;;;;;;9.98;6.63;;;;;;;;;;10261095;28;20489;-63
2021/10/25 09:26:28;;;;;;;13.27;5.53;;;;;;;;;;10249589;28;20033;-63
2021/10/25 09:31:30;;;;;;;9.40;6.47;;;;;;;;;;10246029;28;20037;-62
2021/10/25 09:36:36;;;;;;;8.27;5.43;;;;;;;;;;10253781;28;20048;-61
2021/10/25 09:51:54;;;;;;;9.90;5.40;;;;;;;;;;10273256;28;20132;-63
2021/10/25 09:57:04;;;;;;;6.68;4.25;;;;;;;;;;10253872;28;20030;-62
2021/10/25 10:02:14;;;;;;;6.68;3.75;;;;;;;;;;10266898;28;20037;-63
2021/10/25 10:07:16;;;;;;;8.32;3.78;;;;;;;;;;10242323;28;20044;-62
2021/10/25 10:12:18;;;;;;;5.38;4.10;;;;;;;;;;10296870;28;20447;-63
2021/10/25 10:17:20;;;;;;;7.15;4.40;;;;;;;;;;10280264;28;20403;-63
2021/10/25 10:22:20;;;;;;;7.72;4.10;;;;;;;;;;10281681;28;20033;-63
2021/10/25 10:27:39;;;;;;;10.35;3.72;;;;;;;;;;10280275;28;20053;-63
2021/10/25 10:32:36;;;;;;;9.50;4.47;;;;;;;;;;10247801;28;20515;-63
2021/10/25 10:38:01;;;;;;;7.78;4.35;;;;;;;;;;10263258;28;20822;-63
2021/10/25 10:43:02;;;;;;;10.40;3.97;;;;;;;;;;10273275;28;20056;-64
2021/10/25 10:48:03;;;;;;;10.55;4.43;;;;;;;;;;10254224;28;20486;-64
2021/10/25 10:53:06;;;;;;;7.70;4.22;;;;;;;;;;10270876;28;20539;-66
2021/10/25 11:03:05;;;;;;;3.20;2.30;;;;;;;;;;10282753;28;20040;-67
2021/10/25 11:08:03;;;;;;;7.85;4.05;;;;;;;;;;10247145;28;20030;-65
2021/10/25 11:13:06;;;;;;;13.37;6.03;;;;;;;;;;10269189;28;20561;-62
2021/10/25 11:18:04;;;;;;;12.43;4.35;;;;;;;;;;10279956;28;20284;-63
2021/10/25 11:23:07;;;;;;;8.70;3.47;;;;;;;;;;10268208;28;20026;-63
2021/10/25 11:28:16;;;;;;;8.32;4.18;;;;;;;;;;10273440;28;20351;-62
2021/10/25 11:33:17;;;;;;;5.20;3.65;;;;;;;;;;10256074;28;20103;-61
2021/10/25 11:38:15;;;;;;;4.78;3.53;;;;;;;;;;10267846;28;20034;-62
2021/10/25 11:43:13;;;;;;;8.85;3.88;;;;;;;;;;10240074;28;20037;-62
2021/10/25 11:48:10;;;;;;;7.53;4.77;;;;;;;;;;10282494;28;20499;-62
2021/10/25 11:53:08;;;;;;;6.30;3.93;;;;;;;;;;10266194;28;20033;-62
2021/10/25 11:58:08;;;;;;;5.75;3.38;;;;;;;;;;10282420;28;20544;-62
2021/10/25 12:03:09;;;;;;;7.55;4.07;;;;;;;;;;10294579;28;20029;-60
2021/10/25 12:08:08;;;;;;;4.35;3.35;;;;;;;;;;10280417;28;20029;-63
2021/10/25 12:13:07;;;;;;;13.13;4.15;;;;;;;;;;10268792;28;20611;-62
2021/10/25 12:18:05;;;;;;;9.52;3.30;;;;;;;;;;10263735;28;20037;-63
2021/10/25 12:23:10;;;;;;;3.65;2.70;;;;;;;;;;10282802;28;20491;-62
2021/10/25 12:28:11;;;;;;;6.55;4.30;;;;;;;;;;10281260;28;20563;-62
2021/10/25 12:33:11;;;;;;;3.90;2.55;;;;;;;;;;10288466;28;20026;-61
2021/10/25 12:38:11;;;;;;;5.10;2.83;;;;;;;;;;10263254;28;20025;-61
2021/10/25 12:43:09;;;;;;;6.07;2.47;;;;;;;;;;10261649;28;20091;-61
2021/10/25 12:48:08;;;;;;;4.73;2.53;;;;;;;;;;10262824;28;20031;-62
2021/10/25 12:53:06;;;;;;;4.70;3.45;;;;;;;;;;10282071;28;20025;-62
2021/10/25 12:58:11;;;;;;;3.15;2.30;;;;;;;;;;10266935;28;20032;-63
2021/10/25 13:03:09;;;;;;;4.10;2.90;;;;;;;;;;10281567;28;20120;-62
2021/10/25 13:08:08;;;;;;;6.53;2.70;;;;;;;;;;10275906;28;20426;-62
2021/10/25 13:13:05;;;;;;;;;;;;;;;;;;10258552;28;20497;-62
2021/10/25 13:18:07;;;;;;;4.30;2.75;;;;;;;;;;10302277;28;19909;-63
2021/10/25 13:23:04;;;;;;;2.85;1.80;;;;;;;;;;10284797;28;20499;-63
2021/10/25 13:28:03;;;;;;;4.03;3.03;;;;;;;;;;10291413;28;20076;-63
2021/10/25 13:33:01;;;;;;;5.13;2.13;;;;;;;;;;10257909;28;20609;-62
2021/10/25 13:37:59;;;;;;;7.00;1.95;;;;;;;;;;10258905;28;20393;-61
2021/10/25 13:42:57;;;;;;;4.57;2.37;;;;;;;;;;10261424;28;20767;-62
2021/10/25 13:47:55;;;;;;;6.57;2.65;;;;;;;;;;10266236;28;20101;-60
2021/10/25 13:52:52;;;;;;;4.50;2.00;;;;;;;;;;10270401;28;20612;-62
2021/10/25 13:57:51;;;;;;;5.57;2.50;;;;;;;;;;10294848;28;20033;-62
2021/10/25 14:02:49;;;;;;;5.07;2.67;;;;;;;;;;10311137;28;20034;-61
2021/10/25 14:07:47;;;;;;;6.28;3.13;;;;;;;;;;10290160;28;20522;-62
2021/10/25 14:12:45;;;;;;;9.85;3.47;;;;;;;;;;10306980;28;20099;-62
2021/10/25 14:17:47;;;;;;;4.22;2.38;;;;;;;;;;10266660;28;20042;-62
2021/10/25 14:22:44;;;;;;;8.73;3.08;;;;;;;;;;10278114;28;20056;-62
2021/10/25 14:27:41;;;;;;;5.57;2.90;;;;;;;;;;10317964;28;20128;-64
2021/10/25 14:32:40;;;;;;;4.07;3.30;;;;;;;;;;10290001;28;20033;-63
2021/10/25 14:37:42;;;;;;;3.30;2.30;;;;;;;;;;10301559;28;20103;-61
2021/10/25 14:42:43;;;;;;;5.05;3.38;;;;;;;;;;10297795;28;20052;-61
2021/10/25 14:58:14;;;;;;;5.93;2.85;;;;;;;;;;10275260;28;20499;-62
2021/10/25 15:03:12;;;;;;;6.13;3.65;;;;;;;;;;10275697;28;20033;-63
2021/10/25 15:08:09;;;;;;;3.20;2.03;;;;;;;;;;10289632;22;20495;-61
2021/10/25 15:13:07;;;;;;;5.17;3.13;;;;;;;;;;10243415;28;20030;-60
2021/10/25 15:18:04;;;;;;;4.47;3.33;;;;;;;;;;10276019;28;20030;-61
2021/10/25 15:23:02;;;;;;;7.30;3.10;;;;;;;;;;10284185;28;20022;-59
2021/10/25 15:28:01;;;;;;;7.95;2.85;;;;;;;;;;10281018;28;20381;-60
2021/10/25 15:32:58;;;;;;;;;;;;;;;;;;10287615;28;20049;-61
2021/10/25 15:37:57;;;;;;;4.78;3.15;;;;;;;;;;10270795;28;19913;-59
2021/10/25 15:42:54;;;;;;;5.15;3.13;;;;;;;;;;10287929;28;20285;-60
2021/10/25 15:47:52;;;;;;;6.70;3.63;;;;;;;;;;10280068;28;20037;-58
2021/10/25 15:52:49;;;;;;;6.43;2.45;;;;;;;;;;10276396;28;20029;-58
2021/10/25 15:57:47;;;;;;;4.93;3.30;;;;;;;;;;10277714;28;20034;-60
2021/10/25 16:02:45;;;;;;;4.95;3.20;;;;;;;;;;10296318;28;20041;-60
2021/10/25 16:07:42;;;;;;;4.73;2.83;;;;;;;;;;10287393;28;20057;-63
2021/10/25 16:12:41;;;;;;;4.20;3.17;;;;;;;;;;10285498;28;20491;-62
2021/10/25 16:17:38;;;;;;;7.72;3.08;;;;;;;;;;10294906;28;20044;-63
2021/10/25 16:22:36;;;;;;;5.70;3.77;;;;;;;;;;10288213;28;20044;-63
2021/10/25 16:27:40;;;;;;;;;;;;;;;;;;10295504;28;20087;-62
2021/10/25 16:32:37;;;;;;;10.55;5.40;;;;;;;;;;10284189;28;19917;-61
2021/10/25 16:37:35;;;;;;;19.23;6.78;;;;;;;;;;10284717;28;20030;-63
2021/10/25 16:42:32;;;;;;;11.07;5.60;;;;;;;;;;10276106;28;20068;-62
2021/10/25 16:47:30;;;;;;;8.60;5.17;;;;;;;;;;10279786;28;20029;-62
2021/10/25 16:52:46;;;;;;;16.53;6.20;;;;;;;;;;10283412;28;20486;-61
2021/10/25 17:13:32;;;;;;;6.88;3.67;;;;;;;;;;10271445;28;20052;-63
2021/10/25 17:18:29;;;;;;;12.23;4.57;;;;;;;;;;10284018;28;20034;-61
2021/10/25 17:23:31;;;;;;;10.33;4.47;;;;;;;;;;10276177;28;20045;-62
2021/10/25 17:28:30;;;;;;;7.53;4.35;;;;;;;;;;10279576;28;20096;-62
2021/10/25 17:33:28;;;;;;;8.60;4.50;;;;;;;;;;10293185;28;20060;-63
2021/10/25 17:38:25;;;;;;;8.48;4.15;;;;;;;;;;10288273;28;20043;-61
2021/10/25 17:43:24;;;;;;;13.43;6.57;;;;;;;;;;10286543;28;20041;-62
2021/10/25 17:48:21;;;;;;;13.98;7.13;;;;;;;;;;10283016;28;20307;-62
2021/10/25 17:53:19;;;;;;;11.10;7.03;;;;;;;;;;10270879;28;20037;-62
2021/10/25 17:58:19;;;;;;;12.10;7.00;;;;;;;;;;10277033;28;20020;-60
2021/10/25 18:03:16;;;;;;;11.18;5.70;;;;;;;;;;10279311;28;20382;-63
2021/10/25 18:08:16;;;;;;;9.97;4.87;;;;;;;;;;10275916;28;20056;-63
2021/10/25 18:13:14;;;;;;;8.65;4.40;;;;;;;;;;10277495;28;20517;-62
2021/10/25 18:18:12;;;;;;;8.57;5.28;;;;;;;;;;10269793;28;20072;-63
2021/10/25 18:23:11;;;;;;;10.13;6.20;;;;;;;;;;10277980;28;20071;-61
2021/10/25 18:28:09;;;;;;;7.75;4.85;;;;;;;;;;10274176;28;20065;-61
2021/10/25 18:33:07;;;;;;;10.23;5.43;;;;;;;;;;10273885;28;20117;-60
2021/10/25 18:38:04;;;;;;;9.50;4.78;;;;;;;;;;10278302;28;20029;-59
2021/10/25 18:43:02;;;;;;;10.13;5.70;;;;;;;;;;10275615;28;20048;-60
2021/10/25 18:48:00;;;;;;;8.20;4.38;;;;;;;;;;10276676;28;20037;-60
2021/10/25 18:52:59;;;;;;;9.33;5.07;;;;;;;;;;10277876;28;20096;-60
2021/10/25 18:57:57;;;;;;;10.98;5.43;;;;;;;;;;10248942;28;20030;-60
2021/10/25 19:02:54;;;;;;;11.97;5.70;;;;;;;;;;10268405;28;20038;-61
2021/10/25 19:07:52;;;;;;;15.73;7.10;;;;;;;;;;10262005;28;20042;-60
2021/10/25 19:12:49;;;;;;;23.47;9.20;;;;;;;;;;10274592;28;20236;-61
2021/10/25 19:17:47;;;;;;;66.03;35.77;;;;;;;;;;10267764;28;20040;-62
2021/10/25 19:22:45;;;;;;;18.15;15.30;;;;;;;;;;10262783;28;20302;-61
2021/10/25 19:27:45;;;;;;;14.27;12.05;;;;;;;;;;10271026;28;20527;-59
2021/10/25 19:32:42;;;;;;;9.20;6.85;;;;;;;;;;10268400;28;20041;-62
2021/10/25 19:37:40;;;;;;;13.57;10.00;;;;;;;;;;10248453;28;20168;-61
2021/10/25 19:42:38;;;;;;;8.32;6.20;;;;;;;;;;10263560;28;20079;-61
2021/10/25 19:47:36;;;;;;;7.83;6.77;;;;;;;;;;10263914;28;20053;-62
2021/10/25 19:52:36;;;;;;;13.20;8.33;;;;;;;;;;10262318;28;20042;-62
2021/10/25 19:57:33;;;;;;;14.38;7.97;;;;;;;;;;10260992;28;20712;-60
2021/10/25 20:02:31;;;;;;;16.47;9.40;;;;;;;;;;10273828;28;20038;-61
2021/10/25 20:07:28;;;;;;;11.60;6.70;;;;;;;;;;10266522;28;20042;-64
2021/10/25 20:12:26;;;;;;;21.27;11.47;;;;;;;;;;10279641;28;20470;-63
2021/10/25 20:17:23;;;;;;;22.20;14.55;;;;;;;;;;10287890;28;20048;-62
2021/10/25 20:22:21;;;;;;;9.57;6.13;;;;;;;;;;10277679;28;20407;-63
2021/10/25 20:27:22;;;;;;;13.47;6.70;;;;;;;;;;10277487;28;20438;-63
2021/10/25 20:32:19;;;;;;;15.52;7.13;;;;;;;;;;10276570;28;20083;-63
2021/10/25 20:37:17;;;;;;;12.47;6.53;;;;;;;;;;10275762;28;20857;-64
2021/10/25 20:42:15;;;;;;;12.90;6.00;;;;;;;;;;10275713;28;20045;-63
2021/10/25 20:47:12;;;;;;;12.77;8.57;;;;;;;;;;10283541;28;20399;-64
2021/10/25 20:52:10;;;;;;;11.57;6.20;;;;;;;;;;10276805;28;20049;-64
2021/10/25 20:57:09;;;;;;;10.50;6.23;;;;;;;;;;10277225;28;20030;-62
2021/10/25 21:02:07;;;;;;;5.07;4.22;;;;;;;;;;10286304;28;21383;-63
2021/10/25 21:07:04;;;;;;;6.80;5.33;;;;;;;;;;10270137;28;20034;-62
2021/10/25 21:12:02;;;;;;;15.90;5.80;;;;;;;;;;10274251;28;20522;-63
2021/10/25 21:16:59;;;;;;;12.10;6.87;;;;;;;;;;10278474;28;20277;-64
2021/10/25 21:21:57;;;;;;;15.73;6.10;;;;;;;;;;10270521;28;20041;-63
2021/10/25 21:26:54;;;;;;;10.20;4.87;;;;;;;;;;10279892;28;20038;-62
2021/10/25 21:31:52;;;;;;;11.77;7.77;;;;;;;;;;10278142;28;20029;-62
2021/10/25 21:36:49;;;;;;;13.73;7.13;;;;;;;;;;10278068;28;20045;-63
2021/10/25 21:41:46;;;;;;;14.67;7.77;;;;;;;;;;10273278;28;20033;-62
2021/10/25 21:46:44;;;;;;;10.60;6.07;;;;;;;;;;10278372;28;20045;-63
2021/10/25 21:51:44;;;;;;;16.17;7.22;;;;;;;;;;10274279;28;20091;-63
2021/10/25 21:56:42;;;;;;;12.38;6.18;;;;;;;;;;10270905;28;20449;-62
2021/10/25 22:01:39;;;;;;;14.47;7.87;;;;;;;;;;10277492;28;20033;-64
2021/10/25 22:06:37;;;;;;;9.33;4.87;;;;;;;;;;10279652;28;20065;-64
2021/10/25 22:11:34;;;;;;;10.50;5.37;;;;;;;;;;10288229;28;20029;-64
2021/10/25 22:16:31;;;;;;;12.23;7.00;;;;;;;;;;10276204;28;20042;-61
2021/10/25 22:21:29;;;;;;;11.20;6.33;;;;;;;;;;10279010;28;20523;-61
2021/10/25 22:26:27;;;;;;;13.17;6.70;;;;;;;;;;10273652;28;20072;-62
2021/10/25 22:31:24;;;;;;;14.17;6.63;;;;;;;;;;10281023;28;20499;-61
2021/10/25 22:36:21;;;;;;;11.67;6.73;;;;;;;;;;10282947;28;20263;-63
2021/10/25 22:41:19;;;;;;;4.27;2.93;;;;;;;;;;10269550;28;20041;-63
2021/10/25 22:46:16;;;;;;;20.10;11.13;;;;;;;;;;10272452;28;20044;-63
2021/10/25 22:51:14;;;;;;;20.00;11.30;;;;;;;;;;10272875;28;20033;-62
2021/10/25 22:56:11;;;;;;;21.77;12.93;;;;;;;;;;10281690;28;20087;-64
2021/10/25 23:01:09;;;;;;;20.63;11.90;;;;;;;;;;10269156;28;20045;-63
2021/10/25 23:06:06;;;;;;;23.33;13.55;;;;;;;;;;10273033;28;20041;-64
2021/10/25 23:11:04;;;;;;;18.53;11.03;;;;;;;;;;10282027;28;20037;-63
2021/10/25 23:16:01;;;;;;;18.10;8.37;;;;;;;;;;10282286;28;20049;-59
2021/10/25 23:20:58;;;;;;;23.27;12.20;;;;;;;;;;10273396;28;20596;-64
2021/10/25 23:25:56;;;;;;;11.00;6.57;;;;;;;;;;10272935;28;20041;-60
2021/10/25 23:30:53;;;;;;;14.10;8.97;;;;;;;;;;10272208;28;20037;-62
2021/10/25 23:35:51;;;;;;;22.40;13.43;;;;;;;;;;10285104;28;20034;-62
2021/10/25 23:40:49;;;;;;;28.23;17.33;;;;;;;;;;10263289;28;20115;-63
2021/10/25 23:45:46;;;;;;;23.58;13.55;;;;;;;;;;10250662;28;20404;-63
2021/10/25 23:50:44;;;;;;;21.37;11.67;;;;;;;;;;10281953;28;20269;-63
2021/10/25 23:55:41;;;;;;;15.43;8.43;;;;;;;;;;10282584;28;20112;-63
